Terminal Aerodrome Forecast
Issued by NWS Paducah, KY

Home | Current Version | Previous Version | Text Only | Print | Product List | Glossary Off
Versions: 1 2 3 4 5 6 7 8 9 10 11 12 13 14 15 16 17 18 19

024
FTUS43 KPAH 212359 AAA
TAFEVV
TAF AMD
KEVV 212359Z 2200/2224 36009G19KT P6SM VCTS SCT060CB SCT200
      TEMPO 2200/2202 VRB15G25KT 2SM TSRA BR BKN025CB
     FM220200 20005KT P6SM SCT200
     FM221200 21005KT P6SM SCT035 BKN200
     FM221500 25009KT P6SM VCSH BKN035 PROB30 2215/2221 4SM -TSRA BR
      BKN025CB=

USA.gov is the U.S. government's official web portal to all federal, state and local government web resources and services.